sensor_id;sensor_type;location;lat;lon;timestamp;P1;durP1;ratioP1;P2;durP2;ratioP2
82793;SDS011;72533;52.852;6.176;2024-03-06T00:02:17;22.33;;;12.00;;
82793;SDS011;72533;52.852;6.176;2024-03-06T00:04:43;19.10;;;10.53;;
82793;SDS011;72533;52.852;6.176;2024-03-06T00:07:08;19.88;;;10.82;;
82793;SDS011;72533;52.852;6.176;2024-03-06T00:09:33;18.27;;;11.43;;
82793;SDS011;72533;52.852;6.176;2024-03-06T00:11:59;20.58;;;10.27;;
82793;SDS011;72533;52.852;6.176;2024-03-06T00:14:25;16.63;;;9.68;;
82793;SDS011;72533;52.852;6.176;2024-03-06T00:16:50;18.33;;;10.90;;
82793;SDS011;72533;52.852;6.176;2024-03-06T00:19:16;16.90;;;9.98;;
82793;SDS011;72533;52.852;6.176;2024-03-06T00:21:41;16.35;;;9.45;;
82793;SDS011;72533;52.852;6.176;2024-03-06T00:24:06;13.40;;;8.43;;
82793;SDS011;72533;52.852;6.176;2024-03-06T00:26:31;17.50;;;9.30;;
82793;SDS011;72533;52.852;6.176;2024-03-06T00:28:57;14.80;;;9.87;;
82793;SDS011;72533;52.852;6.176;2024-03-06T00:31:22;15.30;;;7.80;;
82793;SDS011;72533;52.852;6.176;2024-03-06T00:33:47;13.97;;;8.40;;
82793;SDS011;72533;52.852;6.176;2024-03-06T00:36:13;16.60;;;8.77;;
82793;SDS011;72533;52.852;6.176;2024-03-06T00:38:38;15.43;;;8.40;;
82793;SDS011;72533;52.852;6.176;2024-03-06T00:41:03;13.90;;;8.43;;
82793;SDS011;72533;52.852;6.176;2024-03-06T00:43:28;14.83;;;9.40;;
82793;SDS011;72533;52.852;6.176;2024-03-06T00:45:54;12.90;;;8.60;;
82793;SDS011;72533;52.852;6.176;2024-03-06T00:48:19;19.03;;;8.13;;
82793;SDS011;72533;52.852;6.176;2024-03-06T00:50:47;13.20;;;7.97;;
82793;SDS011;72533;52.852;6.176;2024-03-06T00:53:12;16.83;;;8.50;;
82793;SDS011;72533;52.852;6.176;2024-03-06T00:55:37;12.33;;;7.63;;
82793;SDS011;72533;52.852;6.176;2024-03-06T00:58:03;17.63;;;11.17;;
82793;SDS011;72533;52.852;6.176;2024-03-06T01:00:29;18.13;;;7.13;;
82793;SDS011;72533;52.852;6.176;2024-03-06T01:02:54;14.15;;;7.75;;
82793;SDS011;72533;52.852;6.176;2024-03-06T01:05:19;13.87;;;9.03;;
82793;SDS011;72533;52.852;6.176;2024-03-06T01:07:44;14.37;;;6.57;;
82793;SDS011;72533;52.852;6.176;2024-03-06T01:10:10;14.27;;;8.67;;
82793;SDS011;72533;52.852;6.176;2024-03-06T01:12:35;14.25;;;8.30;;
82793;SDS011;72533;52.852;6.176;2024-03-06T01:15:00;15.03;;;8.60;;
82793;SDS011;72533;52.852;6.176;2024-03-06T01:17:26;12.37;;;8.23;;
82793;SDS011;72533;52.852;6.176;2024-03-06T01:19:51;12.47;;;7.77;;
82793;SDS011;72533;52.852;6.176;2024-03-06T01:22:17;15.57;;;8.27;;
82793;SDS011;72533;52.852;6.176;2024-03-06T01:24:42;13.90;;;7.50;;
82793;SDS011;72533;52.852;6.176;2024-03-06T01:27:07;19.30;;;7.07;;
82793;SDS011;72533;52.852;6.176;2024-03-06T01:29:33;12.10;;;7.88;;
82793;SDS011;72533;52.852;6.176;2024-03-06T01:31:58;15.40;;;8.63;;
82793;SDS011;72533;52.852;6.176;2024-03-06T01:34:23;13.47;;;6.17;;
82793;SDS011;72533;52.852;6.176;2024-03-06T01:36:49;12.77;;;7.05;;
82793;SDS011;72533;52.852;6.176;2024-03-06T01:39:15;17.03;;;8.43;;
82793;SDS011;72533;52.852;6.176;2024-03-06T01:41:46;13.80;;;9.17;;
82793;SDS011;72533;52.852;6.176;2024-03-06T01:44:12;16.23;;;8.07;;
82793;SDS011;72533;52.852;6.176;2024-03-06T01:46:37;13.40;;;7.50;;
82793;SDS011;72533;52.852;6.176;2024-03-06T01:49:03;13.97;;;7.90;;
82793;SDS011;72533;52.852;6.176;2024-03-06T01:51:29;13.55;;;7.75;;
82793;SDS011;72533;52.852;6.176;2024-03-06T01:53:54;12.87;;;7.80;;
82793;SDS011;72533;52.852;6.176;2024-03-06T01:56:19;13.10;;;7.20;;
82793;SDS011;72533;52.852;6.176;2024-03-06T01:58:45;14.30;;;7.00;;
82793;SDS011;72533;52.852;6.176;2024-03-06T02:01:11;14.43;;;7.82;;
82793;SDS011;72533;52.852;6.176;2024-03-06T02:03:37;13.65;;;8.77;;
82793;SDS011;72533;52.852;6.176;2024-03-06T02:06:02;13.73;;;7.80;;
82793;SDS011;72533;52.852;6.176;2024-03-06T02:08:27;14.35;;;7.45;;
82793;SDS011;72533;52.852;6.176;2024-03-06T02:10:53;14.97;;;8.40;;
82793;SDS011;72533;52.852;6.176;2024-03-06T02:13:18;12.40;;;6.83;;
82793;SDS011;72533;52.852;6.176;2024-03-06T02:15:44;11.15;;;6.60;;
82793;SDS011;72533;52.852;6.176;2024-03-06T02:18:10;16.05;;;8.80;;
82793;SDS011;72533;52.852;6.176;2024-03-06T02:20:37;12.25;;;7.80;;
82793;SDS011;72533;52.852;6.176;2024-03-06T02:23:02;11.85;;;6.28;;
82793;SDS011;72533;52.852;6.176;2024-03-06T02:25:28;14.27;;;8.80;;
82793;SDS011;72533;52.852;6.176;2024-03-06T02:27:53;14.77;;;7.37;;
82793;SDS011;72533;52.852;6.176;2024-03-06T02:30:21;13.70;;;7.67;;
82793;SDS011;72533;52.852;6.176;2024-03-06T02:35:11;13.38;;;6.88;;
82793;SDS011;72533;52.852;6.176;2024-03-06T02:37:37;14.00;;;6.67;;
82793;SDS011;72533;52.852;6.176;2024-03-06T02:40:02;12.65;;;6.90;;
82793;SDS011;72533;52.852;6.176;2024-03-06T02:42:28;12.13;;;7.07;;
82793;SDS011;72533;52.852;6.176;2024-03-06T02:44:53;12.57;;;7.50;;
82793;SDS011;72533;52.852;6.176;2024-03-06T02:47:19;13.60;;;6.45;;
82793;SDS011;72533;52.852;6.176;2024-03-06T02:49:44;12.73;;;6.10;;
82793;SDS011;72533;52.852;6.176;2024-03-06T02:52:10;13.27;;;6.72;;
82793;SDS011;72533;52.852;6.176;2024-03-06T02:54:35;13.27;;;7.03;;
82793;SDS011;72533;52.852;6.176;2024-03-06T02:57:00;14.90;;;7.57;;
82793;SDS011;72533;52.852;6.176;2024-03-06T02:59:25;15.63;;;7.60;;
82793;SDS011;72533;52.852;6.176;2024-03-06T03:01:51;16.00;;;8.40;;
82793;SDS011;72533;52.852;6.176;2024-03-06T03:04:16;12.47;;;7.13;;
82793;SDS011;72533;52.852;6.176;2024-03-06T03:06:42;14.20;;;7.85;;
82793;SDS011;72533;52.852;6.176;2024-03-06T03:09:07;15.13;;;8.47;;
82793;SDS011;72533;52.852;6.176;2024-03-06T03:11:36;15.90;;;8.23;;
82793;SDS011;72533;52.852;6.176;2024-03-06T03:14:01;16.20;;;7.07;;
82793;SDS011;72533;52.852;6.176;2024-03-06T03:16:26;11.77;;;6.90;;
82793;SDS011;72533;52.852;6.176;2024-03-06T03:18:52;13.27;;;7.73;;
82793;SDS011;72533;52.852;6.176;2024-03-06T03:21:17;13.93;;;8.00;;
82793;SDS011;72533;52.852;6.176;2024-03-06T03:23:43;13.17;;;7.23;;
82793;SDS011;72533;52.852;6.176;2024-03-06T03:26:09;13.23;;;7.50;;
82793;SDS011;72533;52.852;6.176;2024-03-06T03:28:40;14.70;;;7.07;;
82793;SDS011;72533;52.852;6.176;2024-03-06T03:31:09;17.73;;;9.15;;
82793;SDS011;72533;52.852;6.176;2024-03-06T03:33:35;13.05;;;7.75;;
82793;SDS011;72533;52.852;6.176;2024-03-06T03:36:03;14.07;;;7.25;;
82793;SDS011;72533;52.852;6.176;2024-03-06T03:38:29;11.45;;;6.45;;
82793;SDS011;72533;52.852;6.176;2024-03-06T03:40:54;13.60;;;6.53;;
82793;SDS011;72533;52.852;6.176;2024-03-06T03:43:19;15.30;;;9.73;;
82793;SDS011;72533;52.852;6.176;2024-03-06T03:45:46;12.05;;;6.80;;
82793;SDS011;72533;52.852;6.176;2024-03-06T03:48:11;14.93;;;7.53;;
82793;SDS011;72533;52.852;6.176;2024-03-06T03:50:37;13.60;;;7.80;;
82793;SDS011;72533;52.852;6.176;2024-03-06T03:53:02;10.53;;;5.67;;
82793;SDS011;72533;52.852;6.176;2024-03-06T03:55:27;13.50;;;7.23;;
82793;SDS011;72533;52.852;6.176;2024-03-06T03:57:52;15.30;;;7.70;;
82793;SDS011;72533;52.852;6.176;2024-03-06T04:00:18;11.60;;;6.43;;
82793;SDS011;72533;52.852;6.176;2024-03-06T04:02:43;11.88;;;6.80;;
82793;SDS011;72533;52.852;6.176;2024-03-06T04:05:08;16.20;;;8.23;;
82793;SDS011;72533;52.852;6.176;2024-03-06T04:07:35;14.80;;;7.53;;
82793;SDS011;72533;52.852;6.176;2024-03-06T04:10:01;14.30;;;7.68;;
82793;SDS011;72533;52.852;6.176;2024-03-06T04:12:26;13.85;;;7.07;;
82793;SDS011;72533;52.852;6.176;2024-03-06T04:14:52;12.90;;;6.70;;
82793;SDS011;72533;52.852;6.176;2024-03-06T04:17:17;13.00;;;8.50;;
82793;SDS011;72533;52.852;6.176;2024-03-06T04:19:42;13.93;;;6.40;;
82793;SDS011;72533;52.852;6.176;2024-03-06T04:22:08;16.10;;;7.88;;
82793;SDS011;72533;52.852;6.176;2024-03-06T04:24:33;15.70;;;8.07;;
82793;SDS011;72533;52.852;6.176;2024-03-06T04:26:58;17.50;;;6.97;;
82793;SDS011;72533;52.852;6.176;2024-03-06T04:29:23;13.50;;;7.40;;
82793;SDS011;72533;52.852;6.176;2024-03-06T04:31:48;16.23;;;6.30;;
82793;SDS011;72533;52.852;6.176;2024-03-06T04:34:13;13.90;;;8.13;;
82793;SDS011;72533;52.852;6.176;2024-03-06T04:36:38;14.50;;;7.27;;
82793;SDS011;72533;52.852;6.176;2024-03-06T04:39:04;14.37;;;7.90;;
82793;SDS011;72533;52.852;6.176;2024-03-06T04:43:57;16.33;;;7.68;;
82793;SDS011;72533;52.852;6.176;2024-03-06T04:46:24;13.75;;;7.72;;
82793;SDS011;72533;52.852;6.176;2024-03-06T04:48:50;16.00;;;8.60;;
82793;SDS011;72533;52.852;6.176;2024-03-06T04:51:15;16.50;;;8.40;;
82793;SDS011;72533;52.852;6.176;2024-03-06T04:53:40;16.00;;;9.10;;
82793;SDS011;72533;52.852;6.176;2024-03-06T04:56:07;12.43;;;6.82;;
82793;SDS011;72533;52.852;6.176;2024-03-06T04:58:32;14.60;;;7.73;;
82793;SDS011;72533;52.852;6.176;2024-03-06T05:00:58;19.30;;;9.10;;
82793;SDS011;72533;52.852;6.176;2024-03-06T05:03:23;14.77;;;7.13;;
82793;SDS011;72533;52.852;6.176;2024-03-06T05:05:48;13.17;;;8.77;;
82793;SDS011;72533;52.852;6.176;2024-03-06T05:08:13;14.20;;;8.63;;
82793;SDS011;72533;52.852;6.176;2024-03-06T05:10:38;12.68;;;6.95;;
82793;SDS011;72533;52.852;6.176;2024-03-06T05:13:05;16.33;;;8.70;;
82793;SDS011;72533;52.852;6.176;2024-03-06T05:15:30;17.13;;;8.97;;
82793;SDS011;72533;52.852;6.176;2024-03-06T05:17:55;12.27;;;6.07;;
82793;SDS011;72533;52.852;6.176;2024-03-06T05:20:21;14.93;;;7.70;;
82793;SDS011;72533;52.852;6.176;2024-03-06T05:22:46;15.00;;;8.43;;
82793;SDS011;72533;52.852;6.176;2024-03-06T05:25:11;12.98;;;7.75;;
82793;SDS011;72533;52.852;6.176;2024-03-06T05:27:37;15.50;;;8.53;;
82793;SDS011;72533;52.852;6.176;2024-03-06T05:30:02;12.83;;;8.07;;
82793;SDS011;72533;52.852;6.176;2024-03-06T05:32:30;13.50;;;7.60;;
82793;SDS011;72533;52.852;6.176;2024-03-06T05:34:55;14.10;;;8.05;;
82793;SDS011;72533;52.852;6.176;2024-03-06T05:37:22;13.48;;;7.88;;
82793;SDS011;72533;52.852;6.176;2024-03-06T05:39:48;13.53;;;8.33;;
82793;SDS011;72533;52.852;6.176;2024-03-06T05:42:13;17.30;;;10.03;;
82793;SDS011;72533;52.852;6.176;2024-03-06T05:44:38;16.50;;;8.23;;
82793;SDS011;72533;52.852;6.176;2024-03-06T05:47:03;13.70;;;7.97;;
82793;SDS011;72533;52.852;6.176;2024-03-06T05:49:29;15.07;;;7.83;;
82793;SDS011;72533;52.852;6.176;2024-03-06T05:51:54;17.40;;;8.57;;
82793;SDS011;72533;52.852;6.176;2024-03-06T05:54:20;18.30;;;9.20;;
82793;SDS011;72533;52.852;6.176;2024-03-06T05:56:47;13.27;;;6.95;;
82793;SDS011;72533;52.852;6.176;2024-03-06T05:59:12;16.95;;;8.43;;
82793;SDS011;72533;52.852;6.176;2024-03-06T06:01:38;14.95;;;9.57;;
82793;SDS011;72533;52.852;6.176;2024-03-06T06:04:03;15.37;;;8.20;;
82793;SDS011;72533;52.852;6.176;2024-03-06T06:06:28;16.70;;;8.80;;
82793;SDS011;72533;52.852;6.176;2024-03-06T06:08:53;15.30;;;8.27;;
82793;SDS011;72533;52.852;6.176;2024-03-06T06:11:19;14.50;;;8.52;;
82793;SDS011;72533;52.852;6.176;2024-03-06T06:13:44;15.57;;;7.70;;
82793;SDS011;72533;52.852;6.176;2024-03-06T06:16:09;16.90;;;7.90;;
82793;SDS011;72533;52.852;6.176;2024-03-06T06:18:34;16.53;;;10.00;;
82793;SDS011;72533;52.852;6.176;2024-03-06T06:21:00;14.00;;;8.37;;
82793;SDS011;72533;52.852;6.176;2024-03-06T06:23:25;15.30;;;8.00;;
82793;SDS011;72533;52.852;6.176;2024-03-06T06:25:50;19.97;;;8.77;;
82793;SDS011;72533;52.852;6.176;2024-03-06T06:28:15;13.30;;;7.50;;
82793;SDS011;72533;52.852;6.176;2024-03-06T06:30:41;15.47;;;7.33;;
82793;SDS011;72533;52.852;6.176;2024-03-06T06:33:06;16.80;;;8.30;;
82793;SDS011;72533;52.852;6.176;2024-03-06T06:35:31;13.30;;;8.00;;
82793;SDS011;72533;52.852;6.176;2024-03-06T06:37:57;18.10;;;8.60;;
82793;SDS011;72533;52.852;6.176;2024-03-06T06:40:22;14.50;;;8.63;;
82793;SDS011;72533;52.852;6.176;2024-03-06T06:42:48;16.13;;;9.30;;
82793;SDS011;72533;52.852;6.176;2024-03-06T06:45:16;15.68;;;8.80;;
82793;SDS011;72533;52.852;6.176;2024-03-06T06:47:42;13.77;;;7.70;;
82793;SDS011;72533;52.852;6.176;2024-03-06T06:50:08;17.98;;;9.38;;
82793;SDS011;72533;52.852;6.176;2024-03-06T06:52:34;15.82;;;8.23;;
82793;SDS011;72533;52.852;6.176;2024-03-06T06:54:59;14.93;;;7.50;;
82793;SDS011;72533;52.852;6.176;2024-03-06T06:57:24;15.37;;;7.40;;
82793;SDS011;72533;52.852;6.176;2024-03-06T06:59:50;16.97;;;7.63;;
82793;SDS011;72533;52.852;6.176;2024-03-06T07:02:15;22.27;;;10.33;;
82793;SDS011;72533;52.852;6.176;2024-03-06T07:04:40;16.40;;;8.13;;
82793;SDS011;72533;52.852;6.176;2024-03-06T07:07:05;12.70;;;6.67;;
82793;SDS011;72533;52.852;6.176;2024-03-06T07:09:30;17.53;;;7.50;;
82793;SDS011;72533;52.852;6.176;2024-03-06T07:11:56;16.97;;;8.27;;
82793;SDS011;72533;52.852;6.176;2024-03-06T07:14:21;16.80;;;8.23;;
82793;SDS011;72533;52.852;6.176;2024-03-06T07:16:46;17.33;;;8.63;;
82793;SDS011;72533;52.852;6.176;2024-03-06T07:19:12;16.58;;;7.18;;
82793;SDS011;72533;52.852;6.176;2024-03-06T07:21:37;18.70;;;8.33;;
82793;SDS011;72533;52.852;6.176;2024-03-06T07:24:02;14.37;;;7.73;;
82793;SDS011;72533;52.852;6.176;2024-03-06T07:26:27;18.07;;;9.47;;
82793;SDS011;72533;52.852;6.176;2024-03-06T07:28:55;15.68;;;9.90;;
82793;SDS011;72533;52.852;6.176;2024-03-06T07:31:20;17.17;;;8.77;;
82793;SDS011;72533;52.852;6.176;2024-03-06T07:33:45;17.17;;;9.60;;
82793;SDS011;72533;52.852;6.176;2024-03-06T07:36:10;18.77;;;9.40;;
82793;SDS011;72533;52.852;6.176;2024-03-06T07:38:35;18.40;;;9.00;;
82793;SDS011;72533;52.852;6.176;2024-03-06T07:41:01;14.97;;;9.13;;
82793;SDS011;72533;52.852;6.176;2024-03-06T07:43:26;15.82;;;9.27;;
82793;SDS011;72533;52.852;6.176;2024-03-06T07:45:51;18.77;;;9.50;;
82793;SDS011;72533;52.852;6.176;2024-03-06T07:48:16;18.13;;;9.73;;
82793;SDS011;72533;52.852;6.176;2024-03-06T07:50:42;15.70;;;8.73;;
82793;SDS011;72533;52.852;6.176;2024-03-06T07:53:07;19.10;;;9.65;;
82793;SDS011;72533;52.852;6.176;2024-03-06T07:55:32;23.90;;;10.43;;
82793;SDS011;72533;52.852;6.176;2024-03-06T07:57:57;18.40;;;9.57;;
82793;SDS011;72533;52.852;6.176;2024-03-06T08:00:23;16.10;;;8.30;;
82793;SDS011;72533;52.852;6.176;2024-03-06T08:02:48;16.13;;;8.53;;
82793;SDS011;72533;52.852;6.176;2024-03-06T08:07:42;18.37;;;9.60;;
82793;SDS011;72533;52.852;6.176;2024-03-06T08:10:10;15.68;;;9.73;;
82793;SDS011;72533;52.852;6.176;2024-03-06T08:12:42;14.93;;;7.88;;
82793;SDS011;72533;52.852;6.176;2024-03-06T08:17:34;17.42;;;8.43;;
82793;SDS011;72533;52.852;6.176;2024-03-06T08:19:59;19.25;;;8.30;;
82793;SDS011;72533;52.852;6.176;2024-03-06T08:22:25;16.87;;;8.37;;
82793;SDS011;72533;52.852;6.176;2024-03-06T08:24:50;17.80;;;8.77;;
82793;SDS011;72533;52.852;6.176;2024-03-06T08:27:15;15.83;;;9.73;;
82793;SDS011;72533;52.852;6.176;2024-03-06T08:29:40;15.63;;;9.57;;
82793;SDS011;72533;52.852;6.176;2024-03-06T08:32:05;16.20;;;8.57;;
82793;SDS011;72533;52.852;6.176;2024-03-06T08:34:31;17.17;;;9.67;;
82793;SDS011;72533;52.852;6.176;2024-03-06T08:36:56;14.82;;;8.80;;
82793;SDS011;72533;52.852;6.176;2024-03-06T08:39:22;13.93;;;8.90;;
82793;SDS011;72533;52.852;6.176;2024-03-06T08:41:47;16.95;;;8.90;;
82793;SDS011;72533;52.852;6.176;2024-03-06T08:44:12;19.73;;;10.00;;
82793;SDS011;72533;52.852;6.176;2024-03-06T08:46:37;17.73;;;9.10;;
82793;SDS011;72533;52.852;6.176;2024-03-06T08:49:03;18.47;;;9.63;;
82793;SDS011;72533;52.852;6.176;2024-03-06T08:51:28;14.70;;;8.67;;
82793;SDS011;72533;52.852;6.176;2024-03-06T08:53:53;15.17;;;9.33;;
82793;SDS011;72533;52.852;6.176;2024-03-06T08:56:18;17.43;;;10.00;;
82793;SDS011;72533;52.852;6.176;2024-03-06T08:58:43;14.80;;;8.77;;
82793;SDS011;72533;52.852;6.176;2024-03-06T09:01:08;16.90;;;10.77;;
82793;SDS011;72533;52.852;6.176;2024-03-06T09:03:34;16.17;;;9.27;;
82793;SDS011;72533;52.852;6.176;2024-03-06T09:05:59;17.33;;;9.67;;
82793;SDS011;72533;52.852;6.176;2024-03-06T09:08:25;16.42;;;9.35;;
82793;SDS011;72533;52.852;6.176;2024-03-06T09:10:50;18.40;;;10.73;;
82793;SDS011;72533;52.852;6.176;2024-03-06T09:13:15;17.93;;;10.67;;
82793;SDS011;72533;52.852;6.176;2024-03-06T09:15:40;17.88;;;10.20;;
82793;SDS011;72533;52.852;6.176;2024-03-06T09:18:05;19.63;;;9.37;;
82793;SDS011;72533;52.852;6.176;2024-03-06T09:20:31;20.13;;;9.53;;
82793;SDS011;72533;52.852;6.176;2024-03-06T09:22:56;17.40;;;9.73;;
82793;SDS011;72533;52.852;6.176;2024-03-06T09:25:24;18.05;;;10.57;;
82793;SDS011;72533;52.852;6.176;2024-03-06T09:27:49;16.40;;;9.00;;
82793;SDS011;72533;52.852;6.176;2024-03-06T09:30:14;16.47;;;9.67;;
82793;SDS011;72533;52.852;6.176;2024-03-06T09:32:40;17.63;;;10.95;;
82793;SDS011;72533;52.852;6.176;2024-03-06T09:35:07;20.00;;;10.70;;
82793;SDS011;72533;52.852;6.176;2024-03-06T09:37:32;15.83;;;9.03;;
82793;SDS011;72533;52.852;6.176;2024-03-06T09:39:57;17.90;;;11.50;;
82793;SDS011;72533;52.852;6.176;2024-03-06T09:42:22;20.30;;;11.10;;
82793;SDS011;72533;52.852;6.176;2024-03-06T09:44:48;17.15;;;9.75;;
82793;SDS011;72533;52.852;6.176;2024-03-06T09:47:13;21.05;;;11.82;;
82793;SDS011;72533;52.852;6.176;2024-03-06T09:49:42;18.55;;;10.63;;
82793;SDS011;72533;52.852;6.176;2024-03-06T09:52:08;20.02;;;11.30;;
82793;SDS011;72533;52.852;6.176;2024-03-06T09:54:35;16.65;;;10.55;;
82793;SDS011;72533;52.852;6.176;2024-03-06T09:57:00;20.30;;;10.07;;
82793;SDS011;72533;52.852;6.176;2024-03-06T09:59:26;16.70;;;11.70;;
82793;SDS011;72533;52.852;6.176;2024-03-06T10:01:58;20.67;;;9.85;;
82793;SDS011;72533;52.852;6.176;2024-03-06T10:04:27;19.42;;;9.65;;
82793;SDS011;72533;52.852;6.176;2024-03-06T10:06:53;18.58;;;11.27;;
82793;SDS011;72533;52.852;6.176;2024-03-06T10:09:20;17.70;;;9.85;;
82793;SDS011;72533;52.852;6.176;2024-03-06T10:11:45;16.83;;;10.27;;
82793;SDS011;72533;52.852;6.176;2024-03-06T10:14:11;19.97;;;10.50;;
82793;SDS011;72533;52.852;6.176;2024-03-06T10:16:37;17.98;;;10.65;;
82793;SDS011;72533;52.852;6.176;2024-03-06T10:19:17;19.03;;;10.10;;
82793;SDS011;72533;52.852;6.176;2024-03-06T10:21:43;16.58;;;10.50;;
82793;SDS011;72533;52.852;6.176;2024-03-06T10:24:10;24.13;;;12.00;;
82793;SDS011;72533;52.852;6.176;2024-03-06T10:26:36;18.23;;;10.68;;
82793;SDS011;72533;52.852;6.176;2024-03-06T10:29:01;23.27;;;11.03;;
82793;SDS011;72533;52.852;6.176;2024-03-06T10:31:27;19.80;;;10.40;;
82793;SDS011;72533;52.852;6.176;2024-03-06T10:33:53;21.60;;;10.25;;
82793;SDS011;72533;52.852;6.176;2024-03-06T10:36:18;21.50;;;11.53;;
82793;SDS011;72533;52.852;6.176;2024-03-06T10:38:44;20.40;;;12.40;;
82793;SDS011;72533;52.852;6.176;2024-03-06T10:41:10;21.48;;;11.77;;
82793;SDS011;72533;52.852;6.176;2024-03-06T10:43:38;18.52;;;11.88;;
82793;SDS011;72533;52.852;6.176;2024-03-06T10:46:06;21.23;;;11.75;;
82793;SDS011;72533;52.852;6.176;2024-03-06T10:48:31;19.40;;;11.10;;
82793;SDS011;72533;52.852;6.176;2024-03-06T10:50:56;21.77;;;10.02;;
82793;SDS011;72533;52.852;6.176;2024-03-06T10:53:22;21.70;;;12.82;;
82793;SDS011;72533;52.852;6.176;2024-03-06T10:55:48;20.58;;;11.10;;
82793;SDS011;72533;52.852;6.176;2024-03-06T10:58:14;20.48;;;12.05;;
82793;SDS011;72533;52.852;6.176;2024-03-06T11:00:41;20.00;;;11.65;;
82793;SDS011;72533;52.852;6.176;2024-03-06T11:03:07;22.42;;;11.13;;
82793;SDS011;72533;52.852;6.176;2024-03-06T11:05:36;26.17;;;13.50;;
82793;SDS011;72533;52.852;6.176;2024-03-06T11:08:04;23.33;;;13.10;;
82793;SDS011;72533;52.852;6.176;2024-03-06T11:10:31;21.35;;;11.10;;
82793;SDS011;72533;52.852;6.176;2024-03-06T11:12:56;24.17;;;15.20;;
82793;SDS011;72533;52.852;6.176;2024-03-06T11:15:21;22.40;;;12.37;;
82793;SDS011;72533;52.852;6.176;2024-03-06T11:17:46;20.63;;;13.60;;
82793;SDS011;72533;52.852;6.176;2024-03-06T11:20:16;20.30;;;12.57;;
82793;SDS011;72533;52.852;6.176;2024-03-06T11:28:07;21.60;;;11.35;;
82793;SDS011;72533;52.852;6.176;2024-03-06T11:30:34;24.58;;;12.50;;
82793;SDS011;72533;52.852;6.176;2024-03-06T11:33:11;20.77;;;11.80;;
82793;SDS011;72533;52.852;6.176;2024-03-06T11:35:37;23.90;;;12.88;;
82793;SDS011;72533;52.852;6.176;2024-03-06T11:38:04;25.48;;;13.80;;
82793;SDS011;72533;52.852;6.176;2024-03-06T11:40:31;22.85;;;12.65;;
82793;SDS011;72533;52.852;6.176;2024-03-06T11:42:56;27.33;;;13.73;;
82793;SDS011;72533;52.852;6.176;2024-03-06T11:45:21;21.57;;;14.43;;
82793;SDS011;72533;52.852;6.176;2024-03-06T11:48:02;23.85;;;12.57;;
82793;SDS011;72533;52.852;6.176;2024-03-06T11:50:28;20.45;;;12.45;;
82793;SDS011;72533;52.852;6.176;2024-03-06T11:52:53;23.48;;;13.10;;
82793;SDS011;72533;52.852;6.176;2024-03-06T11:55:22;22.98;;;13.32;;
82793;SDS011;72533;52.852;6.176;2024-03-06T11:57:47;22.23;;;13.90;;
82793;SDS011;72533;52.852;6.176;2024-03-06T12:00:13;26.07;;;15.13;;
82793;SDS011;72533;52.852;6.176;2024-03-06T12:02:39;24.00;;;14.60;;
82793;SDS011;72533;52.852;6.176;2024-03-06T12:05:05;25.70;;;14.65;;
82793;SDS011;72533;52.852;6.176;2024-03-06T12:07:30;27.00;;;14.18;;
82793;SDS011;72533;52.852;6.176;2024-03-06T12:09:57;26.13;;;13.27;;
82793;SDS011;72533;52.852;6.176;2024-03-06T12:12:23;25.23;;;13.90;;
82793;SDS011;72533;52.852;6.176;2024-03-06T12:14:58;23.05;;;14.23;;
82793;SDS011;72533;52.852;6.176;2024-03-06T12:17:29;22.75;;;12.68;;
82793;SDS011;72533;52.852;6.176;2024-03-06T12:19:54;23.70;;;14.80;;
82793;SDS011;72533;52.852;6.176;2024-03-06T12:22:20;22.67;;;13.88;;
82793;SDS011;72533;52.852;6.176;2024-03-06T12:24:57;24.75;;;13.18;;
82793;SDS011;72533;52.852;6.176;2024-03-06T12:27:22;22.52;;;12.65;;
82793;SDS011;72533;52.852;6.176;2024-03-06T12:29:48;25.57;;;14.87;;
82793;SDS011;72533;52.852;6.176;2024-03-06T12:32:17;23.95;;;13.93;;
82793;SDS011;72533;52.852;6.176;2024-03-06T12:34:42;20.92;;;13.40;;
82793;SDS011;72533;52.852;6.176;2024-03-06T12:37:08;26.00;;;14.13;;
82793;SDS011;72533;52.852;6.176;2024-03-06T12:39:34;25.35;;;13.63;;
82793;SDS011;72533;52.852;6.176;2024-03-06T12:42:00;22.38;;;12.82;;
82793;SDS011;72533;52.852;6.176;2024-03-06T12:44:26;23.13;;;12.37;;
82793;SDS011;72533;52.852;6.176;2024-03-06T12:46:51;21.55;;;13.48;;
82793;SDS011;72533;52.852;6.176;2024-03-06T12:49:16;21.63;;;12.87;;
82793;SDS011;72533;52.852;6.176;2024-03-06T12:51:43;21.90;;;13.23;;
82793;SDS011;72533;52.852;6.176;2024-03-06T12:54:09;22.80;;;13.75;;
82793;SDS011;72533;52.852;6.176;2024-03-06T12:56:34;24.37;;;13.47;;
82793;SDS011;72533;52.852;6.176;2024-03-06T12:58:59;22.73;;;13.77;;
82793;SDS011;72533;52.852;6.176;2024-03-06T13:01:24;19.43;;;12.10;;
82793;SDS011;72533;52.852;6.176;2024-03-06T13:03:49;21.37;;;13.03;;
82793;SDS011;72533;52.852;6.176;2024-03-06T13:06:15;22.57;;;13.27;;
82793;SDS011;72533;52.852;6.176;2024-03-06T13:08:40;22.80;;;12.80;;
82793;SDS011;72533;52.852;6.176;2024-03-06T13:11:05;25.23;;;14.63;;
82793;SDS011;72533;52.852;6.176;2024-03-06T13:13:30;26.90;;;16.03;;
82793;SDS011;72533;52.852;6.176;2024-03-06T13:15:57;22.90;;;13.55;;
82793;SDS011;72533;52.852;6.176;2024-03-06T13:18:23;23.30;;;13.43;;
82793;SDS011;72533;52.852;6.176;2024-03-06T13:20:48;27.42;;;15.93;;
82793;SDS011;72533;52.852;6.176;2024-03-06T13:23:14;25.02;;;15.07;;
82793;SDS011;72533;52.852;6.176;2024-03-06T13:25:39;25.67;;;13.87;;
82793;SDS011;72533;52.852;6.176;2024-03-06T13:28:05;25.15;;;13.32;;
82793;SDS011;72533;52.852;6.176;2024-03-06T13:30:30;24.93;;;14.63;;
82793;SDS011;72533;52.852;6.176;2024-03-06T13:32:55;22.73;;;13.10;;
82793;SDS011;72533;52.852;6.176;2024-03-06T13:35:21;23.13;;;12.80;;
82793;SDS011;72533;52.852;6.176;2024-03-06T13:37:46;21.87;;;13.60;;
82793;SDS011;72533;52.852;6.176;2024-03-06T13:40:12;22.60;;;12.70;;
82793;SDS011;72533;52.852;6.176;2024-03-06T13:42:38;24.60;;;13.90;;
82793;SDS011;72533;52.852;6.176;2024-03-06T13:45:04;21.90;;;13.77;;
82793;SDS011;72533;52.852;6.176;2024-03-06T13:47:29;19.85;;;12.27;;
82793;SDS011;72533;52.852;6.176;2024-03-06T13:49:55;23.48;;;13.90;;
82793;SDS011;72533;52.852;6.176;2024-03-06T13:52:20;22.17;;;13.20;;
82793;SDS011;72533;52.852;6.176;2024-03-06T13:54:46;23.20;;;12.87;;
82793;SDS011;72533;52.852;6.176;2024-03-06T13:57:13;22.10;;;13.27;;
82793;SDS011;72533;52.852;6.176;2024-03-06T13:59:38;24.50;;;13.63;;
82793;SDS011;72533;52.852;6.176;2024-03-06T14:02:06;30.17;;;14.45;;
82793;SDS011;72533;52.852;6.176;2024-03-06T14:04:31;24.25;;;12.75;;
82793;SDS011;72533;52.852;6.176;2024-03-06T14:06:56;27.37;;;15.87;;
82793;SDS011;72533;52.852;6.176;2024-03-06T14:11:50;23.75;;;12.43;;
82793;SDS011;72533;52.852;6.176;2024-03-06T14:14:16;24.42;;;15.63;;
82793;SDS011;72533;52.852;6.176;2024-03-06T14:16:41;24.33;;;13.98;;
82793;SDS011;72533;52.852;6.176;2024-03-06T14:19:07;31.90;;;18.85;;
82793;SDS011;72533;52.852;6.176;2024-03-06T14:21:33;28.50;;;15.43;;
82793;SDS011;72533;52.852;6.176;2024-03-06T14:23:59;27.70;;;14.37;;
82793;SDS011;72533;52.852;6.176;2024-03-06T14:26:24;27.15;;;15.80;;
82793;SDS011;72533;52.852;6.176;2024-03-06T14:28:49;25.50;;;13.73;;
82793;SDS011;72533;52.852;6.176;2024-03-06T14:31:15;30.10;;;17.37;;
82793;SDS011;72533;52.852;6.176;2024-03-06T14:33:40;31.43;;;15.47;;
82793;SDS011;72533;52.852;6.176;2024-03-06T14:36:05;25.83;;;12.67;;
82793;SDS011;72533;52.852;6.176;2024-03-06T14:38:30;25.80;;;16.13;;